createdAt,value
2022-11-06T00:03:05.541Z,5.69
2022-11-06T00:06:51.228Z,5.69
2022-11-06T00:10:33.896Z,5.67
2022-11-06T00:14:19.254Z,5.62
2022-11-06T00:18:03.941Z,5.59
2022-11-06T00:21:46.836Z,5.56
2022-11-06T00:25:29.565Z,5.57
2022-11-06T00:29:14.844Z,5.56
2022-11-06T00:32:58.948Z,5.52
2022-11-06T00:36:41.639Z,5.52
2022-11-06T00:40:24.398Z,5.46
2022-11-06T00:44:07.130Z,5.39
2022-11-06T00:47:49.806Z,5.36
2022-11-06T00:51:36.906Z,5.37
2022-11-06T00:55:19.637Z,5.37
2022-11-06T00:59:03.350Z,5.31
2022-11-06T01:02:46.536Z,5.32
2022-11-06T01:06:34.103Z,5.29
2022-11-06T01:10:16.817Z,5.26
2022-11-06T01:14:01.107Z,5.21
2022-11-06T01:17:43.726Z,5.19
2022-11-06T01:21:29.482Z,5.13
2022-11-06T01:25:13.548Z,5.08
2022-11-06T01:28:56.832Z,5.11
2022-11-06T01:32:39.499Z,5.13
2022-11-06T01:36:22.484Z,5.17
2022-11-06T01:40:05.865Z,5.20
2022-11-06T01:43:51.791Z,5.20
2022-11-06T01:47:34.460Z,5.21
2022-11-06T01:51:17.312Z,5.20
2022-11-06T01:55:05.095Z,5.20
2022-11-06T01:58:50.717Z,5.23
2022-11-06T02:02:33.498Z,5.21
2022-11-06T02:06:16.211Z,5.22
2022-11-06T02:10:09.692Z,5.18
2022-11-06T02:14:02.375Z,5.11
2022-11-06T02:17:56.352Z,5.04
2022-11-06T02:22:15.582Z,4.97
2022-11-06T02:26:07.007Z,4.93
2022-11-06T02:29:56.665Z,4.91
2022-11-06T02:33:43.911Z,4.91
2022-11-06T02:37:29.570Z,4.91
2022-11-06T02:41:15.652Z,4.86
2022-11-06T02:45:00.645Z,4.81
2022-11-06T02:48:46.486Z,4.75
2022-11-06T02:52:33.484Z,4.70
2022-11-06T02:56:19.460Z,4.64
2022-11-06T03:00:08.109Z,4.58
2022-11-06T03:03:56.270Z,4.54
2022-11-06T03:07:41.517Z,4.48
2022-11-06T03:11:26.343Z,4.47
2022-11-06T03:15:17.976Z,4.43
2022-11-06T03:19:05.830Z,4.36
2022-11-06T03:22:52.391Z,4.33
2022-11-06T03:26:37.469Z,4.31
2022-11-06T03:30:21.653Z,4.27
2022-11-06T03:34:07.088Z,4.24
2022-11-06T03:37:53.525Z,4.23
2022-11-06T03:41:39.644Z,4.21
2022-11-06T03:45:25.987Z,4.18
2022-11-06T03:49:12.247Z,4.16
2022-11-06T03:52:57.698Z,4.12
2022-11-06T03:56:42.676Z,4.11
2022-11-06T04:00:26.720Z,4.12
2022-11-06T04:04:13.891Z,4.09
2022-11-06T04:08:14.946Z,4.08
2022-11-06T04:12:16.335Z,4.04
2022-11-06T04:16:00.420Z,4.03
2022-11-06T04:19:48.038Z,4.04
2022-11-06T04:23:37.730Z,4.05
2022-11-06T04:27:28.384Z,4.03
2022-11-06T04:31:15.125Z,4.03
2022-11-06T04:35:03.946Z,4.00
2022-11-06T04:38:53.758Z,4.01
2022-11-06T04:42:41.430Z,3.99
2022-11-06T04:46:28.799Z,3.95
2022-11-06T04:50:13.132Z,3.91
2022-11-06T04:53:56.320Z,3.87
2022-11-06T04:57:38.971Z,3.85
2022-11-06T05:01:21.787Z,3.79
2022-11-06T05:05:07.096Z,3.79
2022-11-06T05:08:49.830Z,3.79
2022-11-06T05:12:32.561Z,3.75
2022-11-06T05:16:15.234Z,3.73
2022-11-06T05:19:57.894Z,3.69
2022-11-06T05:23:41.126Z,3.66
2022-11-06T05:27:23.786Z,3.65
2022-11-06T05:31:06.617Z,3.62
2022-11-06T05:34:49.270Z,3.58
2022-11-06T05:38:32.114Z,3.55
2022-11-06T05:42:16.146Z,3.51
2022-11-06T05:46:00.468Z,3.50
2022-11-06T05:49:43.193Z,3.55
2022-11-06T05:53:25.865Z,3.52
2022-11-06T05:57:08.543Z,3.47
2022-11-06T06:00:52.700Z,3.45
2022-11-06T06:04:35.338Z,3.47
2022-11-06T06:08:20.935Z,3.44
2022-11-06T06:12:05.850Z,3.45
2022-11-06T06:15:48.585Z,3.48
2022-11-06T06:19:32.897Z,3.52
2022-11-06T06:23:15.543Z,3.55
2022-11-06T06:26:58.232Z,3.57
2022-11-06T06:30:40.902Z,3.61
2022-11-06T06:34:23.574Z,3.59
2022-11-06T06:38:07.571Z,3.57
2022-11-06T06:41:50.460Z,3.57
2022-11-06T06:45:33.152Z,3.56
2022-11-06T06:49:15.809Z,3.60
2022-11-06T06:52:59.169Z,3.64
2022-11-06T06:56:43.228Z,3.70
2022-11-06T07:00:26.104Z,3.74
2022-11-06T07:04:10.112Z,3.78
2022-11-06T07:07:52.773Z,3.83
2022-11-06T07:11:35.462Z,3.93
2022-11-06T07:15:19.530Z,4.01
2022-11-06T07:19:02.212Z,3.99
2022-11-06T07:22:44.838Z,4.01
2022-11-06T07:26:27.567Z,4.06
2022-11-06T07:30:11.613Z,4.16
2022-11-06T07:33:55.679Z,4.30
2022-11-06T07:37:38.439Z,4.41
2022-11-06T07:41:21.095Z,4.54
2022-11-06T07:45:03.809Z,4.68
2022-11-06T07:48:46.487Z,4.83
2022-11-06T07:52:34.068Z,4.98
2022-11-06T07:56:16.704Z,5.09
2022-11-06T07:59:59.337Z,5.25
2022-11-06T08:03:42.041Z,5.42
2022-11-06T08:07:24.918Z,5.55
2022-11-06T08:11:10.203Z,5.60
2022-11-06T08:14:52.994Z,5.66
2022-11-06T08:18:36.174Z,5.71
2022-11-06T08:22:19.106Z,5.76
2022-11-06T08:26:03.569Z,5.83
2022-11-06T08:29:47.606Z,5.91
2022-11-06T08:33:30.337Z,5.96
2022-11-06T08:37:13.007Z,6.05
2022-11-06T08:40:56.041Z,6.12
2022-11-06T08:44:38.724Z,6.19
2022-11-06T08:48:22.737Z,6.27
2022-11-06T08:52:05.429Z,6.35
2022-11-06T08:55:48.186Z,6.45
2022-11-06T08:59:30.932Z,6.53
2022-11-06T09:03:16.251Z,6.60
2022-11-06T09:07:00.614Z,6.64
2022-11-06T09:10:47.131Z,6.74
2022-11-06T09:14:29.881Z,6.90
2022-11-06T09:18:12.798Z,7.05
2022-11-06T09:21:55.896Z,7.21
2022-11-06T09:25:40.057Z,7.34
2022-11-06T09:29:22.781Z,7.47
2022-11-06T09:33:10.613Z,7.61
2022-11-06T09:36:55.898Z,7.73
2022-11-06T09:40:49.492Z,7.80
2022-11-06T09:44:44.966Z,7.89
2022-11-06T09:48:31.762Z,7.96
2022-11-06T09:52:19.649Z,8.04
2022-11-06T09:56:05.980Z,8.15
2022-11-06T09:59:49.345Z,8.25
2022-11-06T10:03:40.101Z,8.39
2022-11-06T10:07:27.615Z,8.50
2022-11-06T10:11:26.477Z,8.55
2022-11-06T10:15:19.569Z,8.60
2022-11-06T10:19:10.160Z,8.62
2022-11-06T10:23:02.510Z,8.66
2022-11-06T10:26:50.241Z,8.71
2022-11-06T10:30:39.650Z,8.71
2022-11-06T10:34:24.866Z,8.76
2022-11-06T10:38:12.173Z,8.99
2022-11-06T10:41:59.656Z,9.14
2022-11-06T10:45:45.592Z,9.26
2022-11-06T10:49:35.962Z,9.29
2022-11-06T10:53:24.631Z,9.35
2022-11-06T10:57:20.937Z,9.38
2022-11-06T11:01:05.253Z,9.48
2022-11-06T11:04:47.962Z,9.70
2022-11-06T11:08:40.422Z,9.89
2022-11-06T11:12:27.411Z,10.03
2022-11-06T11:16:15.888Z,10.10
2022-11-06T11:20:02.074Z,10.21
2022-11-06T11:23:45.192Z,10.30
2022-11-06T11:27:29.924Z,10.35
2022-11-06T11:31:15.027Z,10.47
2022-11-06T11:34:59.454Z,10.59
2022-11-06T11:38:43.011Z,10.68
2022-11-06T11:42:29.610Z,10.80
2022-11-06T11:46:21.970Z,10.95
2022-11-06T11:50:19.458Z,11.13
2022-11-06T11:54:06.175Z,11.20
2022-11-06T11:57:51.818Z,11.44
2022-11-06T12:01:38.610Z,11.64
2022-11-06T12:05:24.687Z,11.72
2022-11-06T12:09:07.375Z,11.78
2022-11-06T12:12:52.706Z,11.86
2022-11-06T12:16:35.844Z,11.96
2022-11-06T12:20:21.278Z,12.07
2022-11-06T12:24:07.937Z,12.11
2022-11-06T12:27:55.279Z,12.18
2022-11-06T12:31:40.461Z,12.26
2022-11-06T12:35:28.016Z,12.29
2022-11-06T12:39:14.062Z,12.38
2022-11-06T12:43:04.582Z,12.52
2022-11-06T12:46:54.465Z,12.57
2022-11-06T12:50:40.702Z,12.61
2022-11-06T12:54:34.352Z,12.73
2022-11-06T12:58:39.388Z,12.78
2022-11-06T13:02:34.923Z,12.82
2022-11-06T13:06:22.756Z,12.96
2022-11-06T13:10:32.384Z,13.11
2022-11-06T13:14:20.307Z,13.09
2022-11-06T13:18:08.680Z,13.12
2022-11-06T13:22:08.242Z,13.20
2022-11-06T13:25:55.065Z,13.37
2022-11-06T13:29:39.506Z,13.51
2022-11-06T13:33:26.148Z,13.64
2022-11-06T13:37:14.772Z,13.67
2022-11-06T13:41:03.948Z,13.67
2022-11-06T13:44:48.251Z,13.65
2022-11-06T13:48:38.069Z,13.70
2022-11-06T13:52:23.817Z,13.70
2022-11-06T13:56:15.832Z,13.73
2022-11-06T14:00:43.172Z,13.78
2022-11-06T14:05:08.234Z,13.89
2022-11-06T14:08:52.401Z,14.08
2022-11-06T14:12:35.127Z,14.09
2022-11-06T14:16:30.501Z,14.07
2022-11-06T14:20:29.683Z,14.01
2022-11-06T14:24:18.049Z,13.88
2022-11-06T14:28:06.662Z,14.17
2022-11-06T14:32:08.596Z,14.09
2022-11-06T14:35:54.875Z,14.05
2022-11-06T14:40:07.194Z,13.88
2022-11-06T14:43:51.736Z,13.64
2022-11-06T14:47:37.526Z,13.59
2022-11-06T14:51:26.811Z,13.49
2022-11-06T14:55:11.089Z,13.22
2022-11-06T14:58:55.691Z,13.04
2022-11-06T15:02:40.371Z,12.81
2022-11-06T15:06:39.178Z,12.52
2022-11-06T15:11:04.691Z,12.38
2022-11-06T15:14:58.401Z,12.19
2022-11-06T15:18:46.268Z,12.07
2022-11-06T15:22:33.566Z,11.95
2022-11-06T15:26:22.214Z,11.81
2022-11-06T15:30:05.812Z,11.62
2022-11-06T15:33:58.777Z,11.49
2022-11-06T15:37:43.626Z,11.38
2022-11-06T15:41:27.275Z,11.26
2022-11-06T15:45:19.840Z,11.11
2022-11-06T15:49:17.976Z,10.96
2022-11-06T15:53:18.370Z,10.78
2022-11-06T15:57:02.595Z,10.65
2022-11-06T16:00:48.772Z,10.54
2022-11-06T16:04:33.388Z,10.52
2022-11-06T16:08:17.855Z,10.38
2022-11-06T16:12:00.853Z,10.25
2022-11-06T16:15:51.550Z,10.08
2022-11-06T16:19:36.767Z,9.94
2022-11-06T16:23:26.777Z,9.92
2022-11-06T16:27:15.484Z,9.92
2022-11-06T16:35:33.304Z,9.87
2022-11-06T16:39:51.314Z,9.82
2022-11-06T16:43:34.195Z,9.81
2022-11-06T16:47:18.699Z,9.78
2022-11-06T16:51:04.935Z,9.72
2022-11-06T16:54:48.903Z,9.71
2022-11-06T16:58:33.891Z,9.63
2022-11-06T17:02:24.381Z,9.54
2022-11-06T17:06:23.531Z,9.32
2022-11-06T17:10:33.147Z,9.16
2022-11-06T17:14:19.827Z,9.17
2022-11-06T17:18:02.665Z,9.26
2022-11-06T17:21:47.117Z,9.26
2022-11-06T17:25:30.403Z,9.64
2022-11-06T17:29:14.398Z,9.58
2022-11-06T17:32:59.693Z,9.57
2022-11-06T17:36:42.410Z,9.52
2022-11-06T17:40:26.568Z,9.42
2022-11-06T17:44:11.236Z,9.30
2022-11-06T17:47:54.016Z,9.17
2022-11-06T17:51:58.195Z,9.09
2022-11-06T17:55:42.497Z,8.98
2022-11-06T17:59:26.009Z,8.92
2022-11-06T18:03:08.772Z,8.86
2022-11-06T18:06:52.968Z,8.82
2022-11-06T18:10:35.599Z,8.79
2022-11-06T18:14:20.494Z,8.77
2022-11-06T18:18:03.733Z,8.71
2022-11-06T18:21:54.821Z,8.66
2022-11-06T18:25:37.500Z,8.65
2022-11-06T18:29:24.734Z,8.60
2022-11-06T18:33:07.438Z,8.60
2022-11-06T18:36:51.095Z,8.55
2022-11-06T18:40:33.783Z,8.48
2022-11-06T18:44:17.744Z,8.41
2022-11-06T18:48:01.826Z,8.33
2022-11-06T18:51:44.523Z,8.32
2022-11-06T18:55:27.210Z,8.26
2022-11-06T18:59:14.806Z,8.17
2022-11-06T19:02:57.597Z,8.09
2022-11-06T19:06:42.346Z,8.08
2022-11-06T19:10:25.019Z,8.10
2022-11-06T19:14:07.868Z,8.09
2022-11-06T19:17:53.719Z,8.06
2022-11-06T19:21:36.452Z,8.03
2022-11-06T19:25:21.287Z,7.97
2022-11-06T19:29:05.156Z,7.98
2022-11-06T19:32:53.605Z,7.98
2022-11-06T19:36:36.790Z,7.95
2022-11-06T19:40:21.116Z,7.96
2022-11-06T19:44:03.944Z,7.99
2022-11-06T19:48:09.306Z,8.00
2022-11-06T19:51:52.187Z,7.99
2022-11-06T19:55:39.955Z,8.02
2022-11-06T19:59:22.620Z,8.00
2022-11-06T20:03:09.099Z,8.03
2022-11-06T20:06:53.198Z,8.10
2022-11-06T20:10:37.563Z,8.13
2022-11-06T20:14:21.794Z,8.09
2022-11-06T20:18:18.735Z,8.05
2022-11-06T20:22:02.393Z,8.03
2022-11-06T20:25:46.465Z,8.02
2022-11-06T20:29:29.225Z,8.05
2022-11-06T20:33:19.197Z,8.06
2022-11-06T20:37:04.861Z,8.01
2022-11-06T20:40:50.552Z,8.03
2022-11-06T20:44:33.968Z,8.07
2022-11-06T20:48:28.862Z,8.20
2022-11-06T20:52:14.020Z,8.34
2022-11-06T20:55:59.644Z,8.42
2022-11-06T20:59:42.424Z,8.54
2022-11-06T21:03:31.159Z,8.76
2022-11-06T21:07:14.303Z,8.83
2022-11-06T21:11:05.996Z,8.95
2022-11-06T21:14:49.199Z,9.05
2022-11-06T21:18:35.166Z,9.05
2022-11-06T21:22:17.806Z,9.22
2022-11-06T21:26:06.665Z,9.22
2022-11-06T21:29:49.521Z,9.23
2022-11-06T21:33:42.396Z,9.42
2022-11-06T21:37:32.881Z,9.47
2022-11-06T21:41:19.007Z,9.53
2022-11-06T21:45:01.822Z,9.65
2022-11-06T21:48:53.897Z,9.84
2022-11-06T21:52:50.709Z,9.91
2022-11-06T21:56:35.188Z,10.32
2022-11-06T22:00:18.623Z,10.54
2022-11-06T22:04:02.004Z,10.52
2022-11-06T22:07:44.900Z,10.46
2022-11-06T22:11:29.174Z,10.52
2022-11-06T22:15:13.616Z,10.57
2022-11-06T22:19:07.954Z,10.57
2022-11-06T22:22:50.683Z,10.58
2022-11-06T22:26:34.801Z,10.57
2022-11-06T22:30:19.144Z,10.51
2022-11-06T22:34:13.728Z,10.53
2022-11-06T22:37:56.438Z,10.55
2022-11-06T22:41:40.006Z,10.47
2022-11-06T22:45:24.345Z,10.45
2022-11-06T22:49:21.195Z,10.40
2022-11-06T22:53:07.565Z,10.36
2022-11-06T22:56:53.354Z,10.46
2022-11-06T23:00:37.333Z,10.40
2022-11-06T23:04:26.709Z,10.40
2022-11-06T23:08:09.388Z,10.42
2022-11-06T23:11:52.063Z,10.38
2022-11-06T23:15:34.801Z,10.41
2022-11-06T23:19:26.509Z,10.42
2022-11-06T23:23:09.274Z,10.39
2022-11-06T23:26:52.048Z,10.42
2022-11-06T23:30:35.871Z,10.42
2022-11-06T23:34:24.596Z,10.48
2022-11-06T23:38:07.326Z,10.46
2022-11-06T23:41:51.049Z,10.54
2022-11-06T23:45:52.123Z,10.51
2022-11-06T23:49:36.221Z,10.52
2022-11-06T23:53:18.906Z,10.43
2022-11-06T23:57:01.619Z,10.49
